Offutt Air Force Base Omaha US
ICAO: KOFF
IATA: OFF
Category: Medium
Scheduled Services: No

Elevation: 1052 ft
TransAlt. 18000 ft.

Airport Communications:
OMAHA APP/DEP:118
ATIS:126.025
GND:121.7
PMSV METRO:22.74
COMD POST:31.1
PTD:37.94
TWR:123.7

KOFF Zoom In..

Runways:

(A) RW 12 length 11702 ft width 150 ft
ILS 111.70 / hdg 124

(B) RW 30 length 11702 ft width 150 ft
ILS 109.50 / hdg 304

Location; KOFF
Day. 25 / Time. 11.56 Zulu
* Altimeter: 30.22
* Temperature: 07° c. 44.6°f.
* Wind from: 340° Speed 08 kn.
Dewpoint: 05° c.
Visibility: 10 Statute Miles.
Clouds: Overcast 5000 ft.
Conditions: Light Rain.

KOFF 251156Z 34008KT 10SM -RA OVC050 07/05 A3022 RMK AO2A SLP241 P0002 60002 70004 T00700051 10097 20070 52008 $


Wind From 340°
Speed 08 kn.

  YouTube Music Video
 
jpsmedia.com for Web Design  worldairports.se 2018   terms of use